Ophir, Utah
Current Conditions -  °F | °C
As of 5:53 PM on Saturday 20 Dec 2014 (Local Time) from KPVU Reporting Station
Broken Clouds Broken Clouds  
Wind Chill: 37°   Ceiling: 6500
Heat Index: 37°   Visibility: 15mi
Dew Point: 34°   Wind: 0mph
Humidity: 87%   Direction: NA
Pressure: 30.1"   Gusts: NA
Location:  40.2688°N, 112.37°W
Report Text: KPVU 210053Z 00000KT 15SM BKN065 03/01 A3010
Loading
Personal Weather Stations






























Interactive Weather Map New forecast layout! Learn more

10-Day Weather Forecast

Advertisements
Track Severe Weather on mobile